createdAt,value
2018-03-06T00:04:58.352Z," 4.56"
2018-03-06T00:09:54.314Z," 4.56"
2018-03-06T00:14:51.386Z," 4.38"
2018-03-06T00:19:47.700Z," 4.24"
2018-03-06T00:24:44.033Z," 4.19"
2018-03-06T00:29:40.171Z," 4.08"
2018-03-06T00:34:40.673Z," 4.12"
2018-03-06T00:39:36.613Z," 4.02"
2018-03-06T00:44:32.658Z," 3.98"
2018-03-06T00:49:32.847Z," 3.95"
2018-03-06T00:54:27.671Z," 3.81"
2018-03-06T00:59:23.388Z," 3.70"
2018-03-06T01:04:23.111Z," 3.70"
2018-03-06T01:09:19.330Z," 3.69"
2018-03-06T01:14:15.331Z," 3.60"
2018-03-06T01:19:11.207Z," 3.74"
2018-03-06T01:24:11.270Z," 3.66"
2018-03-06T01:29:06.363Z," 3.59"
2018-03-06T01:34:06.436Z," 3.62"
2018-03-06T01:39:01.648Z," 3.60"
2018-03-06T01:43:57.844Z," 3.32"
2018-03-06T01:48:54.672Z," 3.37"
2018-03-06T01:53:50.525Z," 3.28"
2018-03-06T01:58:50.233Z," 3.21"
2018-03-06T02:03:45.999Z," 3.04"
2018-03-06T02:08:43.369Z," 3.07"
2018-03-06T02:13:43.125Z," 2.97"
2018-03-06T02:18:42.609Z," 3.05"
2018-03-06T02:23:37.371Z," 3.04"
2018-03-06T02:28:37.889Z," 2.97"
2018-03-06T02:33:36.509Z," 3.01"
2018-03-06T02:38:36.340Z," 3.00"
2018-03-06T02:43:35.728Z," 2.95"
2018-03-06T02:48:30.551Z," 3.05"
2018-03-06T02:53:27.236Z," 2.93"
2018-03-06T02:58:27.454Z," 2.71"
2018-03-06T03:03:26.754Z," 2.56"
2018-03-06T03:08:21.594Z," 2.47"
2018-03-06T03:13:21.080Z," 2.57"
2018-03-06T03:18:15.974Z," 2.50"
2018-03-06T03:23:15.468Z," 2.61"
2018-03-06T03:28:11.882Z," 2.54"
2018-03-06T03:33:12.164Z," 2.39"
2018-03-06T03:38:06.680Z," 2.46"
2018-03-06T03:43:06.175Z," 2.64"
2018-03-06T03:48:00.958Z," 2.39"
2018-03-06T03:53:01.820Z," 2.32"
2018-03-06T03:58:00.686Z," 2.38"
2018-03-06T04:02:59.865Z," 2.61"
2018-03-06T04:07:58.522Z," 2.50"
2018-03-06T04:12:53.344Z," 2.51"
2018-03-06T04:17:53.613Z," 2.43"
2018-03-06T04:22:48.292Z," 2.50"
2018-03-06T04:27:49.977Z," 2.44"
2018-03-06T04:32:45.316Z," 2.18"
2018-03-06T04:37:47.399Z," 2.04"
2018-03-06T04:42:45.822Z," 2.04"
2018-03-06T04:47:41.225Z," 2.07"
2018-03-06T04:52:38.030Z," 1.99"
2018-03-06T04:57:37.897Z," 2.07"
2018-03-06T05:02:32.722Z," 2.04"
2018-03-06T05:07:28.392Z," 2.11"
2018-03-06T05:12:29.505Z," 2.02"
2018-03-06T05:17:29.161Z," 2.06"
2018-03-06T05:22:24.421Z," 1.99"
2018-03-06T05:27:19.994Z," 2.07"
2018-03-06T05:32:16.669Z," 2.11"
2018-03-06T05:37:17.081Z," 2.13"
2018-03-06T05:42:15.865Z," 2.14"
2018-03-06T05:47:15.617Z," 2.04"
2018-03-06T05:52:12.001Z," 2.14"
2018-03-06T05:57:08.458Z," 1.99"
2018-03-06T06:02:04.886Z," 1.92"
2018-03-06T06:07:06.224Z," 2.02"
2018-03-06T06:12:06.728Z," 2.02"
2018-03-06T06:17:02.457Z," 2.04"
2018-03-06T06:22:02.899Z," 2.32"
2018-03-06T06:27:03.589Z," 2.44"
2018-03-06T06:32:03.358Z," 2.32"
2018-03-06T06:36:59.224Z," 2.28"
2018-03-06T06:41:59.601Z," 2.35"
2018-03-06T06:46:59.237Z," 2.57"
2018-03-06T06:51:58.852Z," 2.64"
2018-03-06T06:56:58.664Z," 2.75"
2018-03-06T07:01:57.237Z," 2.90"
2018-03-06T07:06:56.341Z," 3.19"
2018-03-06T07:11:52.433Z," 3.69"
2018-03-06T07:16:52.969Z," 3.83"
2018-03-06T07:21:47.783Z," 3.84"
2018-03-06T07:26:48.626Z," 4.08"
2018-03-06T07:31:47.453Z," 4.41"
2018-03-06T07:36:46.607Z," 4.94"
2018-03-06T07:41:45.716Z," 4.93"
2018-03-06T07:46:44.479Z," 4.82"
2018-03-06T07:51:44.177Z," 4.97"
2018-03-06T07:56:44.847Z," 5.30"
2018-03-06T08:01:44.561Z," 5.14"
2018-03-06T08:06:39.362Z," 5.33"
2018-03-06T08:11:40.128Z," 5.54"
2018-03-06T08:16:40.049Z," 5.83"
2018-03-06T08:21:39.390Z," 5.89"
2018-03-06T08:26:39.152Z," 5.69"
2018-03-06T08:31:40.322Z," 5.90"
2018-03-06T08:36:35.822Z," 6.26"
2018-03-06T08:41:31.337Z," 6.44"
2018-03-06T08:46:27.488Z," 6.79"
2018-03-06T08:51:24.537Z," 7.11"
2018-03-06T08:56:25.949Z," 7.29"
2018-03-06T09:01:25.546Z," 7.29"
2018-03-06T09:06:24.474Z," 7.63"
2018-03-06T09:11:24.710Z," 7.83"
2018-03-06T09:16:24.762Z," 8.08"
2018-03-06T09:21:23.639Z," 8.26"
2018-03-06T09:26:23.776Z," 8.44"
2018-03-06T09:31:19.655Z," 9.04"
2018-03-06T09:36:16.689Z," 9.22"
2018-03-06T09:41:17.344Z," 8.99"
2018-03-06T09:46:16.521Z," 8.89"
2018-03-06T09:51:11.726Z," 9.61"
2018-03-06T09:56:08.919Z," 9.80"
2018-03-06T10:01:08.696Z,10.15
2018-03-06T10:06:08.831Z,10.49
2018-03-06T10:11:05.589Z,10.94
2018-03-06T10:16:06.845Z,10.94
2018-03-06T10:21:04.038Z,11.02
2018-03-06T10:26:03.644Z,10.99
2018-03-06T10:30:58.453Z,11.52
2018-03-06T10:35:55.375Z,11.88
2018-03-06T10:40:55.638Z,11.77
2018-03-06T10:45:55.615Z,12.24
2018-03-06T10:50:57.110Z,12.29
2018-03-06T10:55:51.651Z,12.03
2018-03-06T11:00:47.670Z,12.42
2018-03-06T11:05:44.198Z,13.56
2018-03-06T11:10:40.926Z,14.08
2018-03-06T11:15:37.518Z,14.26
2018-03-06T11:20:38.963Z,14.43
2018-03-06T11:25:39.068Z,14.45
2018-03-06T11:30:34.282Z,14.62
2018-03-06T11:35:35.233Z,14.68
2018-03-06T11:40:35.144Z,14.81
2018-03-06T11:45:32.537Z,14.48
2018-03-06T11:50:31.835Z,14.62
2018-03-06T11:55:30.641Z,14.68
2018-03-06T12:00:27.706Z,14.45
2018-03-06T12:05:22.935Z,14.29
2018-03-06T12:10:23.321Z,14.15
2018-03-06T12:15:22.546Z,13.96
2018-03-06T12:20:18.535Z,13.90
2018-03-06T12:25:16.508Z,14.15
2018-03-06T12:30:13.005Z,14.00
2018-03-06T12:35:09.753Z,13.95
2018-03-06T12:40:10.317Z,13.86
2018-03-06T12:45:10.103Z,13.78
2018-03-06T12:50:06.161Z,13.81
2018-03-06T12:55:03.808Z,13.97
2018-03-06T13:00:03.773Z,14.10
2018-03-06T13:05:03.113Z,14.26
2018-03-06T13:09:59.756Z,14.28
2018-03-06T13:14:59.342Z,14.20
2018-03-06T13:19:55.486Z,14.32
2018-03-06T13:24:51.918Z,14.30
2018-03-06T13:29:48.370Z,14.53
2018-03-06T13:34:45.444Z,14.53
2018-03-06T13:39:45.801Z,14.53
2018-03-06T13:44:41.496Z,14.63
2018-03-06T13:49:42.065Z,14.53
2018-03-06T13:54:36.822Z,14.28
2018-03-06T13:59:37.109Z,14.14
2018-03-06T14:04:35.901Z,14.29
2018-03-06T14:09:32.294Z,14.17
2018-03-06T14:14:31.804Z,14.23
2018-03-06T14:19:26.799Z,14.33
2018-03-06T14:24:22.788Z,14.29
2018-03-06T14:29:20.205Z,14.25
2018-03-06T14:34:20.116Z,14.00
2018-03-06T14:39:19.527Z,13.96
2018-03-06T14:44:19.395Z,14.07
2018-03-06T14:49:18.029Z,13.97
2018-03-06T14:54:12.987Z,14.00
2018-03-06T14:59:08.822Z,13.85
2018-03-06T15:04:04.616Z,13.90
2018-03-06T15:09:00.583Z,13.86
2018-03-06T15:13:56.273Z,13.95
2018-03-06T15:18:51.997Z,13.75
2018-03-06T15:23:48.277Z,13.81
2018-03-06T15:28:47.654Z,13.78
2018-03-06T15:33:44.922Z,13.68
2018-03-06T15:38:44.087Z,13.46
2018-03-06T15:43:43.917Z,13.41
2018-03-06T15:48:39.305Z,13.31
2018-03-06T15:53:36.267Z,13.01
2018-03-06T15:58:35.713Z,13.09
2018-03-06T16:03:31.673Z,12.94
2018-03-06T16:08:27.061Z,12.75
2018-03-06T16:13:23.033Z,12.75
2018-03-06T16:18:19.805Z,12.70
2018-03-06T16:23:19.169Z,12.55
2018-03-06T16:28:14.093Z,12.62
2018-03-06T16:33:09.752Z,12.37
2018-03-06T16:38:09.485Z,12.29
2018-03-06T16:43:08.211Z,12.17
2018-03-06T16:48:03.035Z,12.03
2018-03-06T16:52:58.827Z,11.77
2018-03-06T16:57:54.719Z,11.73
2018-03-06T17:02:51.426Z,11.60
2018-03-06T17:07:46.881Z,11.57
2018-03-06T17:12:46.760Z,11.43
2018-03-06T17:17:42.246Z,11.36
2018-03-06T17:22:38.200Z,11.26
2018-03-06T17:27:38.160Z,11.12
2018-03-06T17:32:32.865Z,11.05
2018-03-06T17:37:32.354Z,10.87
2018-03-06T17:42:27.195Z,10.74
2018-03-06T17:47:22.874Z,10.59
2018-03-06T17:52:19.515Z,10.51
2018-03-06T17:57:16.310Z,10.41
2018-03-06T18:02:11.860Z,10.35
2018-03-06T18:07:08.946Z,10.34
2018-03-06T18:12:04.378Z,10.16
2018-03-06T18:17:04.173Z,10.15
2018-03-06T18:22:00.065Z,10.02
2018-03-06T18:26:55.690Z," 9.98"
2018-03-06T18:31:55.392Z," 9.95"
2018-03-06T18:36:50.389Z,10.01
2018-03-06T18:41:46.312Z,10.04
2018-03-06T18:46:45.693Z,10.09
2018-03-06T18:51:40.857Z,10.07
2018-03-06T18:56:36.598Z,10.12
2018-03-06T19:01:32.329Z,10.07
2018-03-06T19:06:29.439Z," 9.97"
2018-03-06T19:11:24.480Z," 9.97"
2018-03-06T19:16:20.567Z," 9.80"
2018-03-06T19:21:18.410Z," 9.76"
2018-03-06T19:26:14.136Z," 9.65"
2018-03-06T19:31:09.838Z," 9.61"
2018-03-06T19:36:05.771Z," 9.58"
2018-03-06T19:41:02.787Z," 9.61"
2018-03-06T19:45:58.441Z," 9.61"
2018-03-06T19:50:54.380Z," 9.61"
2018-03-06T19:55:50.747Z," 9.55"
2018-03-06T20:00:50.982Z," 9.55"
2018-03-06T20:05:46.089Z," 9.58"
2018-03-06T20:10:42.980Z," 9.54"
2018-03-06T20:15:38.553Z," 9.64"
2018-03-06T20:20:34.336Z," 9.55"
2018-03-06T20:25:34.424Z," 9.50"
2018-03-06T20:30:33.451Z," 9.46"
2018-03-06T20:35:28.444Z," 9.43"
2018-03-06T20:40:25.121Z," 9.48"
2018-03-06T20:45:24.678Z," 9.39"
2018-03-06T20:50:20.723Z," 9.36"
2018-03-06T20:55:16.914Z," 9.28"
2018-03-06T21:00:16.499Z," 9.16"
2018-03-06T21:05:12.304Z," 9.13"
2018-03-06T21:10:13.403Z," 8.94"
2018-03-06T21:15:11.031Z," 8.78"
2018-03-06T21:20:07.009Z," 8.87"
2018-03-06T21:25:03.453Z," 8.81"
2018-03-06T21:29:58.994Z," 8.79"
2018-03-06T21:34:55.539Z," 8.81"
2018-03-06T21:39:55.334Z," 8.71"
2018-03-06T21:44:50.434Z," 8.71"
2018-03-06T21:49:50.574Z," 8.67"
2018-03-06T21:54:45.382Z," 8.44"
2018-03-06T21:59:45.188Z," 8.48"
2018-03-06T22:04:44.019Z," 8.27"
2018-03-06T22:09:42.823Z," 8.19"
2018-03-06T22:14:38.519Z," 8.03"
2018-03-06T22:19:37.892Z," 8.10"
2018-03-06T22:24:33.301Z," 8.01"
2018-03-06T22:29:28.867Z," 7.98"
2018-03-06T22:34:24.675Z," 7.88"
2018-03-06T22:39:20.690Z," 7.94"
2018-03-06T22:44:16.870Z," 7.87"
2018-03-06T22:49:12.473Z," 7.91"
2018-03-06T22:54:08.542Z," 7.93"
2018-03-06T22:59:08.320Z," 8.05"
2018-03-06T23:04:04.582Z," 8.01"
2018-03-06T23:09:00.118Z," 7.87"
2018-03-06T23:13:55.999Z," 7.87"
2018-03-06T23:18:52.592Z," 7.83"
2018-03-06T23:23:48.610Z," 7.70"
2018-03-06T23:28:44.090Z," 7.80"
2018-03-06T23:33:44.031Z," 7.75"
2018-03-06T23:38:38.871Z," 7.76"
2018-03-06T23:43:39.687Z," 7.83"
2018-03-06T23:48:39.780Z," 7.76"
2018-03-06T23:53:38.744Z," 7.79"
2018-03-06T23:58:34.088Z," 7.73"
